Terminal Aerodrome Forecast
Issued by NWS Wilmington, NC

Current Version | Previous Version | Text Only | Print | Product List | Glossary On
Versions: 1 2 3 4 5 6 7 8 9 10 11 12 13 14 15 16 17
330
FTUS42 KILM 112333
TAFFLO
TAF
KFLO 112333Z 1200/1224 26002KT P6SM SCT250
     FM120600 05005KT P6SM OVC050
     FM121400 06008KT 5SM -SNRA SCT010 OVC015
     FM121530 06008KT 5SM -FZRA SCT010 OVC015
     FM121700 03007KT 4SM -RA BR OVC015
     FM122300 34005KT P6SM VCSH OVC015=

USA.gov is the U.S. government's official web portal to all federal, state and local government web resources and services.